OJAM/ADJ METAR and TAF weather

Enter ICAO airport designator
Station Type Date Time Source
OJAM METAR 2020/11/27 02:00 UTC NOAA

OJAM 270200Z 00000KT 5000 BR FEW020 SCT030 10/09 Q1017 NOSIG


Station Type Date Time Source
OJAM Decoded METAR 2020/11/27 02:00 UTC NOAA

Amman Airport, Jordan (OJAM) 31-59N 035-59E 768M
Nov 26, 2020 - 09:00 PM EST / 2020.11.27 0200 UTC
Wind: Calm:0
Visibility: 3 mile(s):0
Sky conditions: partly cloudy
Weather: mist
Temperature: 50 F (10 C)
Dew Point: 48 F (9 C)
Relative Humidity: 93%
Pressure (altimeter): 30.03 in. Hg (1017 hPa)
ob: OJAM 270200Z 00000KT 5000 BR FEW020 SCT030 10/09 Q1017 NOSIG
cycle: 2

Station Type Date Time Source
OJAM TAF 2020/11/26 18:15 UTC NOAA

TAF OJAM 261607Z 2618/2724 25012KT 5000 BR FEW020 SCT025 PROB30
TEMPO 2620/2706 3000 RA FE020TCU BKN025 PROB30
TEMPO 2702/2708 1500

Example: see airport list